createdAt,value
2023-01-30T00:01:15.935Z,36.83
2023-01-30T00:03:44.153Z,33.90
2023-01-30T00:06:14.099Z,32.93
2023-01-30T00:08:42.471Z,37.77
2023-01-30T00:11:12.363Z,39.07
2023-01-30T00:13:41.666Z,32.97
2023-01-30T00:16:11.145Z,37.83
2023-01-30T00:18:40.559Z,34.40
2023-01-30T00:21:10.858Z,36.83
2023-01-30T00:23:41.349Z,35.23
2023-01-30T00:26:09.929Z,33.33
2023-01-30T00:28:40.206Z,34.10
2023-01-30T00:31:09.345Z,38.60
2023-01-30T00:33:39.316Z,38.27
2023-01-30T00:36:08.455Z,35.27
2023-01-30T00:38:36.724Z,36.07
2023-01-30T00:41:10.907Z,39.00
2023-01-30T00:43:57.018Z,41.37
2023-01-30T00:46:46.583Z,35.83
2023-01-30T00:49:14.875Z,32.87
2023-01-30T00:51:43.245Z,34.77
2023-01-30T00:54:11.755Z,37.37
2023-01-30T00:56:41.361Z,34.77
2023-01-30T00:59:09.651Z,43.30
2023-01-30T01:01:38.791Z,32.23
2023-01-30T01:04:08.834Z,35.10
2023-01-30T01:06:37.234Z,32.73
2023-01-30T01:09:06.446Z,34.97
2023-01-30T01:11:34.714Z,29.73
2023-01-30T01:14:06.417Z,32.17
2023-01-30T01:16:36.559Z,31.57
2023-01-30T01:19:05.555Z,32.00
2023-01-30T01:21:33.815Z,31.00
2023-01-30T01:24:02.251Z,28.37
2023-01-30T01:26:30.502Z,32.13
2023-01-30T01:28:59.831Z,29.73
2023-01-30T01:31:29.559Z,28.63
2023-01-30T01:33:58.071Z,29.87
2023-01-30T01:36:53.182Z,27.47
2023-01-30T01:39:17.615Z,27.40
2023-01-30T01:41:44.972Z,27.53
2023-01-30T01:44:15.264Z,24.93
2023-01-30T01:46:48.797Z,29.13
2023-01-30T01:49:20.876Z,28.23
2023-01-30T01:51:56.142Z,28.77
2023-01-30T01:54:30.695Z,26.43
2023-01-30T01:57:02.949Z,24.67
2023-01-30T01:59:36.039Z,25.90
2023-01-30T02:02:10.612Z,27.50
2023-01-30T02:04:59.696Z,24.07
2023-01-30T02:07:30.265Z,27.47
2023-01-30T02:09:59.099Z,24.80
2023-01-30T02:12:27.716Z,25.10
2023-01-30T02:14:58.682Z,25.97
2023-01-30T02:17:28.306Z,25.07
2023-01-30T02:20:06.076Z,25.07
2023-01-30T02:23:20.460Z,28.13
2023-01-30T02:26:37.427Z,22.93
2023-01-30T02:29:29.354Z,26.23
2023-01-30T02:32:07.915Z,27.77
2023-01-30T02:34:51.036Z,23.77
2023-01-30T02:37:32.810Z,20.53
2023-01-30T02:40:12.466Z,21.17
2023-01-30T02:43:00.197Z,19.13
2023-01-30T02:45:35.290Z,20.37
2023-01-30T02:48:07.186Z,22.57
2023-01-30T02:50:39.903Z,18.07
2023-01-30T02:53:08.949Z,18.20
2023-01-30T02:55:37.576Z,21.90
2023-01-30T02:58:06.017Z,21.73
2023-01-30T03:00:49.345Z,19.27
2023-01-30T03:03:36.489Z,16.83
2023-01-30T03:06:22.299Z,18.17
2023-01-30T03:09:03.924Z,15.23
2023-01-30T03:11:40.347Z,15.30
2023-01-30T03:14:19.487Z,14.47
2023-01-30T03:16:48.933Z,14.00
2023-01-30T03:19:21.116Z,12.43
2023-01-30T03:21:49.694Z,12.23
2023-01-30T03:24:19.315Z,15.07
2023-01-30T03:26:52.845Z,12.77
2023-01-30T03:29:21.813Z,10.87
2023-01-30T03:31:50.495Z,12.67
2023-01-30T03:34:20.183Z,11.07
2023-01-30T03:36:49.091Z,12.00
2023-01-30T03:39:17.859Z,17.27
2023-01-30T03:41:46.388Z,10.67
2023-01-30T03:44:17.641Z,13.03
2023-01-30T03:46:45.971Z,12.43
2023-01-30T03:49:14.309Z,13.87
2023-01-30T03:51:43.917Z,13.47
2023-01-30T03:54:12.197Z,15.13
2023-01-30T03:56:40.550Z,12.10
2023-01-30T03:59:09.181Z,15.50
2023-01-30T04:01:43.039Z,13.03
2023-01-30T04:04:11.553Z,13.27
2023-01-30T04:06:39.976Z,13.77
2023-01-30T04:09:09.624Z,16.73
2023-01-30T04:11:43.214Z,15.50
2023-01-30T04:14:11.433Z,14.50
2023-01-30T04:16:51.685Z,13.87
2023-01-30T04:19:38.913Z,15.90
2023-01-30T04:22:07.509Z,13.03
2023-01-30T04:24:37.110Z,19.47
2023-01-30T04:27:05.495Z,12.87
2023-01-30T04:29:38.934Z,14.27
2023-01-30T04:32:11.245Z,11.43
2023-01-30T04:34:40.480Z,14.40
2023-01-30T04:37:08.706Z,17.80
2023-01-30T04:39:40.495Z,14.23
2023-01-30T04:42:09.468Z,13.03
2023-01-30T04:44:46.311Z,12.77
2023-01-30T04:47:19.707Z,13.23
2023-01-30T04:49:47.997Z,12.53
2023-01-30T04:52:18.052Z,13.03
2023-01-30T04:54:47.696Z,15.90
2023-01-30T04:57:16.928Z,13.20
2023-01-30T04:59:45.309Z,10.07
2023-01-30T05:02:16.380Z,9.07
2023-01-30T05:04:44.686Z,8.87
2023-01-30T05:07:12.933Z,11.00
2023-01-30T05:09:41.146Z,13.60
2023-01-30T05:12:10.783Z,8.90
2023-01-30T05:14:41.342Z,13.33
2023-01-30T05:17:09.738Z,12.97
2023-01-30T05:19:39.091Z,11.80
2023-01-30T05:22:07.386Z,18.70
2023-01-30T05:24:36.774Z,15.67
2023-01-30T05:27:05.187Z,16.10
2023-01-30T05:29:34.777Z,15.50
2023-01-30T05:32:03.021Z,14.77
2023-01-30T05:34:31.567Z,13.80
2023-01-30T05:36:59.817Z,18.83
2023-01-30T05:39:28.031Z,17.47
2023-01-30T05:41:56.297Z,18.00
2023-01-30T05:44:24.715Z,16.40
2023-01-30T05:46:54.548Z,16.80
2023-01-30T05:49:22.762Z,16.50
2023-01-30T05:51:51.663Z,10.87
2023-01-30T05:54:19.952Z,12.53
2023-01-30T05:56:50.331Z,12.90
2023-01-30T05:59:19.525Z,13.87
2023-01-30T06:01:48.000Z,9.17
2023-01-30T06:04:17.559Z,11.27
2023-01-30T06:06:45.746Z,10.17
2023-01-30T06:09:13.939Z,9.90
2023-01-30T06:11:42.216Z,9.70
2023-01-30T06:14:10.394Z,10.47
2023-01-30T06:16:39.706Z,10.23
2023-01-30T06:19:08.951Z,11.03
2023-01-30T06:21:38.685Z,12.50
2023-01-30T06:24:07.413Z,13.93
2023-01-30T06:26:35.664Z,9.67
2023-01-30T06:29:03.922Z,13.27
2023-01-30T06:31:32.196Z,10.37
2023-01-30T06:34:00.415Z,14.80
2023-01-30T06:36:28.655Z,12.50
2023-01-30T06:38:58.324Z,10.87
2023-01-30T06:41:26.698Z,10.53
2023-01-30T06:43:55.600Z,11.93
2023-01-30T06:46:23.852Z,11.37
2023-01-30T06:48:52.114Z,11.17
2023-01-30T06:51:20.309Z,13.07
2023-01-30T06:53:48.587Z,12.00
2023-01-30T06:56:18.172Z,11.57
2023-01-30T06:58:46.429Z,11.70
2023-01-30T07:01:14.908Z,11.23
2023-01-30T07:03:43.242Z,8.53
2023-01-30T07:06:11.588Z,8.63
2023-01-30T07:08:40.841Z,11.37
2023-01-30T07:11:09.052Z,12.47
2023-01-30T07:13:38.883Z,9.77
2023-01-30T07:16:07.979Z,9.33
2023-01-30T07:18:36.234Z,11.93
2023-01-30T07:21:04.507Z,10.27
2023-01-30T07:23:32.750Z,9.57
2023-01-30T07:26:03.984Z,11.43
2023-01-30T07:28:32.297Z,11.53
2023-01-30T07:31:02.318Z,10.33
2023-01-30T07:33:30.526Z,9.60
2023-01-30T07:35:58.737Z,9.20
2023-01-30T07:38:27.014Z,8.73
2023-01-30T07:40:55.206Z,8.87
2023-01-30T07:43:23.662Z,9.87
2023-01-30T07:45:51.886Z,13.97
2023-01-30T07:48:21.565Z,7.87
2023-01-30T07:50:49.770Z,10.17
2023-01-30T07:53:18.903Z,6.10
2023-01-30T07:55:47.280Z,10.23
2023-01-30T07:58:17.191Z,11.60
2023-01-30T08:00:45.770Z,10.23
2023-01-30T08:03:14.587Z,12.83
2023-01-30T08:05:44.511Z,10.87
2023-01-30T08:08:12.801Z,13.60
2023-01-30T08:10:41.059Z,12.67
2023-01-30T08:13:09.275Z,13.50
2023-01-30T08:15:38.353Z,10.70
2023-01-30T08:18:07.294Z,16.23
2023-01-30T08:20:35.582Z,18.10
2023-01-30T08:23:05.243Z,14.03
2023-01-30T08:25:35.472Z,9.37
2023-01-30T08:28:04.626Z,16.30
2023-01-30T08:30:33.509Z,14.63
2023-01-30T08:33:01.810Z,15.10
2023-01-30T08:35:30.046Z,9.07
2023-01-30T08:37:58.498Z,7.97
2023-01-30T08:40:28.030Z,10.13
2023-01-30T08:42:56.238Z,10.57
2023-01-30T08:45:24.464Z,8.27
2023-01-30T08:47:52.680Z,11.07
2023-01-30T08:50:21.252Z,13.20
2023-01-30T08:52:49.537Z,11.57
2023-01-30T08:55:18.062Z,8.10
2023-01-30T08:57:47.914Z,10.70
2023-01-30T09:00:17.742Z,12.40
2023-01-30T09:02:46.256Z,15.87
2023-01-30T09:05:14.652Z,10.73
2023-01-30T09:07:42.896Z,11.57
2023-01-30T09:10:12.155Z,12.43
2023-01-30T09:12:40.420Z,11.87
2023-01-30T09:15:11.408Z,11.23
2023-01-30T09:17:39.985Z,12.33
2023-01-30T09:20:09.938Z,17.33
2023-01-30T09:22:39.241Z,10.73
2023-01-30T09:25:09.188Z,12.53
2023-01-30T09:27:38.055Z,10.63
2023-01-30T09:30:07.773Z,10.23
2023-01-30T09:32:37.812Z,13.43
2023-01-30T09:35:06.687Z,13.43
2023-01-30T09:37:34.927Z,15.57
2023-01-30T09:40:03.247Z,14.57
2023-01-30T09:42:52.811Z,9.77
2023-01-30T09:45:45.453Z,12.27
2023-01-30T09:48:21.616Z,12.87
2023-01-30T09:51:26.370Z,11.47
2023-01-30T09:54:06.416Z,11.07
2023-01-30T09:56:34.703Z,8.17
2023-01-30T09:59:05.574Z,14.63
2023-01-30T10:01:40.541Z,15.93
2023-01-30T10:04:16.542Z,10.50
2023-01-30T10:06:53.313Z,13.40
2023-01-30T10:09:32.323Z,14.17
2023-01-30T10:12:13.454Z,11.67
2023-01-30T10:15:03.618Z,11.27
2023-01-30T10:17:41.035Z,15.97
2023-01-30T10:20:31.537Z,11.53
2023-01-30T10:23:20.726Z,15.77
2023-01-30T10:25:53.869Z,13.90
2023-01-30T10:28:26.880Z,10.27
2023-01-30T10:31:01.875Z,14.73
2023-01-30T10:33:34.345Z,8.70
2023-01-30T10:36:08.218Z,16.53
2023-01-30T10:38:41.978Z,10.13
2023-01-30T10:41:18.407Z,11.17
2023-01-30T10:43:50.515Z,10.50
2023-01-30T10:46:34.560Z,14.90
2023-01-30T10:49:06.073Z,14.60
2023-01-30T10:51:47.707Z,11.27
2023-01-30T10:54:23.587Z,12.60
2023-01-30T10:56:58.936Z,13.67
2023-01-30T10:59:40.982Z,10.97
2023-01-30T11:02:21.160Z,11.60
2023-01-30T11:04:56.008Z,10.47
2023-01-30T11:07:25.775Z,12.33
2023-01-30T11:09:53.999Z,14.80
2023-01-30T11:12:22.999Z,10.33
2023-01-30T11:14:53.305Z,10.60
2023-01-30T11:17:23.011Z,13.10
2023-01-30T11:19:56.783Z,13.10
2023-01-30T11:22:28.089Z,14.10
2023-01-30T11:25:06.303Z,12.43
2023-01-30T11:27:36.055Z,14.10
2023-01-30T11:30:07.464Z,11.00
2023-01-30T11:32:35.935Z,8.50
2023-01-30T11:35:18.343Z,9.13
2023-01-30T11:37:47.932Z,19.40
2023-01-30T11:40:25.683Z,9.27
2023-01-30T11:42:59.801Z,14.30
2023-01-30T11:45:30.346Z,11.33
2023-01-30T11:48:04.085Z,14.80
2023-01-30T11:50:41.228Z,11.60
2023-01-30T11:53:23.405Z,15.03
2023-01-30T11:56:03.044Z,8.30
2023-01-30T11:58:37.047Z,13.27
2023-01-30T12:01:06.191Z,13.53
2023-01-30T12:03:34.774Z,14.03
2023-01-30T12:06:03.112Z,10.60
2023-01-30T12:08:42.660Z,9.17
2023-01-30T12:11:30.025Z,9.93
2023-01-30T12:14:14.140Z,13.00
2023-01-30T12:17:01.624Z,14.07
2023-01-30T12:19:40.267Z,14.93
2023-01-30T12:22:24.086Z,10.07
2023-01-30T12:25:00.008Z,12.63
2023-01-30T12:27:45.673Z,16.73
2023-01-30T12:30:22.745Z,11.73
2023-01-30T12:32:51.226Z,11.43
2023-01-30T12:35:25.724Z,7.70
2023-01-30T12:38:03.324Z,12.27
2023-01-30T12:40:43.777Z,8.97
2023-01-30T12:43:30.797Z,12.70
2023-01-30T12:46:09.102Z,12.20
2023-01-30T12:49:07.788Z,13.50
2023-01-30T12:51:50.877Z,14.00
2023-01-30T12:54:33.159Z,17.47
2023-01-30T12:57:16.226Z,15.50
2023-01-30T12:59:56.505Z,9.63
2023-01-30T13:02:42.842Z,12.40
2023-01-30T13:05:26.129Z,8.33
2023-01-30T13:08:10.227Z,14.53
2023-01-30T13:10:45.695Z,12.30
2023-01-30T13:13:24.016Z,12.87
2023-01-30T13:16:03.533Z,13.47
2023-01-30T13:18:43.170Z,15.40
2023-01-30T13:21:18.132Z,14.90
2023-01-30T13:23:55.843Z,19.13
2023-01-30T13:26:28.225Z,9.87
2023-01-30T13:29:03.183Z,15.57
2023-01-30T13:31:34.079Z,14.90
2023-01-30T13:34:06.990Z,13.20
2023-01-30T13:36:43.687Z,10.70
2023-01-30T13:41:55.092Z,10.20
2023-01-30T13:44:29.119Z,18.13
2023-01-30T13:46:59.157Z,9.37
2023-01-30T13:49:39.034Z,11.30
2023-01-30T13:52:15.667Z,12.17
2023-01-30T13:54:54.435Z,13.43
2023-01-30T13:57:31.600Z,16.80
2023-01-30T14:00:26.261Z,17.50
2023-01-30T14:03:26.165Z,13.47
2023-01-30T14:06:41.982Z,12.90
2023-01-30T14:09:22.617Z,14.00
2023-01-30T14:11:59.068Z,15.00
2023-01-30T14:14:33.278Z,12.17
2023-01-30T14:17:16.270Z,14.80
2023-01-30T14:19:58.856Z,10.17
2023-01-30T14:22:32.042Z,13.53
2023-01-30T14:25:46.042Z,14.73
2023-01-30T14:28:50.940Z,15.37
2023-01-30T14:31:52.841Z,13.67
2023-01-30T14:34:50.562Z,15.50
2023-01-30T14:37:46.682Z,12.60
2023-01-30T14:40:35.359Z,16.17
2023-01-30T14:43:48.518Z,16.57
2023-01-30T14:46:54.406Z,14.17
2023-01-30T14:49:32.337Z,11.57
2023-01-30T14:52:03.764Z,16.00
2023-01-30T14:54:42.449Z,13.13
2023-01-30T14:57:20.394Z,17.40
2023-01-30T15:00:12.185Z,8.73
2023-01-30T15:02:44.648Z,17.73
2023-01-30T15:05:16.711Z,16.63
2023-01-30T15:07:50.747Z,11.50
2023-01-30T15:10:34.826Z,14.33
2023-01-30T15:13:29.912Z,16.33
2023-01-30T15:16:09.523Z,16.50
2023-01-30T15:18:51.587Z,11.00
2023-01-30T15:21:37.475Z,16.57
2023-01-30T15:24:23.325Z,12.17
2023-01-30T15:27:00.048Z,14.67
2023-01-30T15:29:46.066Z,15.33
2023-01-30T15:32:19.302Z,13.70
2023-01-30T15:34:53.278Z,11.30
2023-01-30T15:37:36.686Z,11.00
2023-01-30T15:40:24.493Z,16.00
2023-01-30T15:42:58.516Z,11.03
2023-01-30T15:45:35.559Z,12.60
2023-01-30T15:48:38.565Z,14.70
2023-01-30T15:51:07.092Z,12.77
2023-01-30T15:53:38.506Z,15.93
2023-01-30T15:56:12.222Z,14.37
2023-01-30T15:58:43.500Z,12.17
2023-01-30T16:01:15.441Z,11.43
2023-01-30T16:03:44.466Z,19.17
2023-01-30T16:06:23.820Z,11.43
2023-01-30T16:09:00.801Z,12.23
2023-01-30T16:11:40.236Z,15.30
2023-01-30T16:14:13.632Z,16.07
2023-01-30T16:16:44.856Z,12.83
2023-01-30T16:19:22.177Z,15.40
2023-01-30T16:21:50.685Z,14.90
2023-01-30T16:24:24.795Z,19.87
2023-01-30T16:26:59.331Z,16.77
2023-01-30T16:29:32.356Z,17.17
2023-01-30T16:32:01.153Z,15.97
2023-01-30T16:34:32.375Z,16.97
2023-01-30T16:37:05.319Z,8.47
2023-01-30T16:39:35.995Z,14.73
2023-01-30T16:42:28.817Z,15.00
2023-01-30T16:45:11.614Z,18.00
2023-01-30T16:47:41.220Z,12.53
2023-01-30T16:50:20.797Z,18.33
2023-01-30T16:52:53.298Z,10.97
2023-01-30T16:55:24.172Z,17.80
2023-01-30T16:57:56.387Z,13.43
2023-01-30T17:00:27.022Z,14.40
2023-01-30T17:02:57.958Z,12.50
2023-01-30T17:05:30.292Z,10.23
2023-01-30T17:08:00.547Z,15.97
2023-01-30T17:10:55.980Z,13.57
2023-01-30T17:13:36.814Z,12.30
2023-01-30T17:16:32.885Z,19.37
2023-01-30T17:19:01.961Z,14.07
2023-01-30T17:21:32.685Z,17.33
2023-01-30T17:24:03.215Z,9.70
2023-01-30T17:26:32.567Z,14.93
2023-01-30T17:29:02.214Z,12.80
2023-01-30T17:31:30.604Z,16.13
2023-01-30T17:33:58.926Z,12.80
2023-01-30T17:36:29.485Z,15.47
2023-01-30T17:38:59.394Z,17.93
2023-01-30T17:41:30.197Z,13.50
2023-01-30T17:43:58.807Z,13.27
2023-01-30T17:46:34.704Z,10.37
2023-01-30T17:49:03.135Z,13.13
2023-01-30T17:51:31.403Z,19.10
2023-01-30T17:53:59.705Z,17.57
2023-01-30T17:56:32.110Z,14.33
2023-01-30T17:59:00.347Z,9.83
2023-01-30T18:01:30.008Z,14.17
2023-01-30T18:03:58.355Z,14.20
2023-01-30T18:06:27.200Z,13.70
2023-01-30T18:08:55.438Z,19.23
2023-01-30T18:11:23.988Z,10.10
2023-01-30T18:13:52.208Z,14.67
2023-01-30T18:16:24.061Z,15.13
2023-01-30T18:18:53.748Z,10.00
2023-01-30T18:21:22.555Z,16.47
2023-01-30T18:23:50.911Z,14.50
2023-01-30T18:26:20.194Z,12.80
2023-01-30T18:28:49.056Z,14.10
2023-01-30T18:31:17.809Z,13.43
2023-01-30T18:33:46.211Z,12.00
2023-01-30T18:36:17.855Z,14.23
2023-01-30T18:38:46.341Z,12.50
2023-01-30T18:41:16.362Z,13.97
2023-01-30T18:43:45.020Z,11.00
2023-01-30T18:46:15.320Z,16.40
2023-01-30T18:48:44.386Z,13.37
2023-01-30T18:51:15.942Z,17.20
2023-01-30T18:53:44.938Z,14.90
2023-01-30T18:56:14.870Z,15.87
2023-01-30T18:58:45.104Z,11.53
2023-01-30T19:01:16.487Z,17.07
2023-01-30T19:03:45.456Z,14.53
2023-01-30T19:06:18.275Z,16.93
2023-01-30T19:08:46.856Z,17.80
2023-01-30T19:11:34.532Z,17.90
2023-01-30T19:14:03.436Z,20.27
2023-01-30T19:16:33.769Z,14.80
2023-01-30T19:19:02.796Z,18.77
2023-01-30T19:21:32.535Z,16.27
2023-01-30T19:24:03.333Z,20.50
2023-01-30T19:26:31.633Z,17.77
2023-01-30T19:29:00.507Z,21.27
2023-01-30T19:31:28.911Z,16.47
2023-01-30T19:34:00.638Z,18.47
2023-01-30T19:36:32.821Z,20.97
2023-01-30T19:39:03.771Z,19.93
2023-01-30T19:41:34.426Z,22.73
2023-01-30T19:44:03.969Z,19.13
2023-01-30T19:46:33.123Z,18.33
2023-01-30T19:49:03.339Z,21.27
2023-01-30T19:51:33.319Z,17.00
2023-01-30T19:54:05.617Z,12.77
2023-01-30T19:56:36.617Z,16.30
2023-01-30T19:59:05.424Z,22.83
2023-01-30T20:01:37.605Z,14.17
2023-01-30T20:04:06.412Z,15.70
2023-01-30T20:06:37.349Z,17.00
2023-01-30T20:09:08.375Z,16.00
2023-01-30T20:11:38.552Z,19.53
2023-01-30T20:14:07.335Z,20.33
2023-01-30T20:16:36.677Z,22.57
2023-01-30T20:19:06.780Z,22.53
2023-01-30T20:21:36.336Z,17.73
2023-01-30T20:24:06.851Z,21.40
2023-01-30T20:26:39.443Z,23.57
2023-01-30T20:29:09.238Z,28.13
2023-01-30T20:31:39.554Z,21.07
2023-01-30T20:34:09.424Z,24.77
2023-01-30T20:36:37.913Z,22.17
2023-01-30T20:39:07.994Z,23.47
2023-01-30T20:41:37.670Z,22.07
2023-01-30T20:44:07.903Z,19.43
2023-01-30T20:46:40.925Z,19.67
2023-01-30T20:49:13.460Z,32.13
2023-01-30T20:51:42.400Z,17.67
2023-01-30T20:54:14.051Z,18.93
2023-01-30T20:56:44.618Z,18.97
2023-01-30T20:59:15.279Z,19.10
2023-01-30T21:01:44.445Z,22.07
2023-01-30T21:04:15.793Z,23.87
2023-01-30T21:06:46.169Z,19.33
2023-01-30T21:09:18.850Z,15.13
2023-01-30T21:11:47.658Z,14.73
2023-01-30T21:14:16.684Z,26.83
2023-01-30T21:16:45.677Z,23.13
2023-01-30T21:19:16.542Z,17.13
2023-01-30T21:21:50.840Z,21.97
2023-01-30T21:24:23.838Z,21.53
2023-01-30T21:26:52.901Z,26.87
2023-01-30T21:29:23.665Z,27.53
2023-01-30T21:31:52.252Z,21.30
2023-01-30T21:34:20.580Z,21.07
2023-01-30T21:37:08.882Z,19.03
2023-01-30T21:39:56.111Z,29.10
2023-01-30T21:42:41.936Z,20.87
2023-01-30T21:45:10.349Z,25.13
2023-01-30T21:47:39.907Z,20.07
2023-01-30T21:50:09.217Z,20.77
2023-01-30T21:52:38.055Z,31.63
2023-01-30T21:55:08.588Z,28.60
2023-01-30T21:57:36.814Z,28.63
2023-01-30T22:00:05.672Z,27.57
2023-01-30T22:02:33.856Z,22.27
2023-01-30T22:05:02.151Z,18.50
2023-01-30T22:07:30.367Z,25.63
2023-01-30T22:09:58.718Z,22.53
2023-01-30T22:12:28.304Z,25.30
2023-01-30T22:14:56.558Z,28.20
2023-01-30T22:17:24.915Z,24.80
2023-01-30T22:19:53.248Z,21.67
2023-01-30T22:22:24.857Z,20.40
2023-01-30T22:24:53.066Z,27.70
2023-01-30T22:27:21.280Z,26.07
2023-01-30T22:29:50.927Z,24.47
2023-01-30T22:32:19.188Z,25.17
2023-01-30T22:34:47.503Z,21.63
2023-01-30T22:37:16.864Z,27.43
2023-01-30T22:39:45.106Z,28.10
2023-01-30T22:42:13.405Z,27.23
2023-01-30T22:44:41.896Z,23.60
2023-01-30T22:47:11.558Z,31.47
2023-01-30T22:49:40.145Z,17.20
2023-01-30T22:52:08.367Z,22.00
2023-01-30T22:54:37.157Z,20.77
2023-01-30T22:57:05.481Z,29.40
2023-01-30T22:59:33.684Z,23.30
2023-01-30T23:02:02.095Z,22.53
2023-01-30T23:04:31.752Z,21.70
2023-01-30T23:06:59.981Z,24.70
2023-01-30T23:09:28.182Z,22.60
2023-01-30T23:12:15.993Z,26.60
2023-01-30T23:14:45.038Z,24.57
2023-01-30T23:17:30.834Z,20.57
2023-01-30T23:20:00.539Z,22.30
2023-01-30T23:22:29.283Z,25.13
2023-01-30T23:24:57.521Z,25.13
2023-01-30T23:27:25.810Z,30.50
2023-01-30T23:29:54.105Z,26.13
2023-01-30T23:32:23.657Z,22.07
2023-01-30T23:34:52.049Z,23.80
2023-01-30T23:37:42.831Z,29.30
2023-01-30T23:40:12.494Z,19.13
2023-01-30T23:42:43.174Z,27.77
2023-01-30T23:45:12.191Z,27.50
2023-01-30T23:47:40.387Z,27.67
2023-01-30T23:50:09.115Z,26.47
2023-01-30T23:52:39.057Z,25.40
2023-01-30T23:55:08.200Z,27.57
2023-01-30T23:57:36.386Z,30.73
